sensor_id;sensor_type;location;lat;lon;timestamp;P1;durP1;ratioP1;P2;durP2;ratioP2
25657;SDS011;13517;59.320;18.042;2023-03-14T00:02:21;8.68;;;2.58;;
25657;SDS011;13517;59.320;18.042;2023-03-14T00:04:46;10.07;;;1.92;;
25657;SDS011;13517;59.320;18.042;2023-03-14T00:07:11;5.90;;;1.73;;
25657;SDS011;13517;59.320;18.042;2023-03-14T00:09:38;8.32;;;1.63;;
25657;SDS011;13517;59.320;18.042;2023-03-14T00:12:03;8.10;;;2.10;;
25657;SDS011;13517;59.320;18.042;2023-03-14T00:14:29;4.65;;;2.17;;
25657;SDS011;13517;59.320;18.042;2023-03-14T00:16:56;5.85;;;1.73;;
25657;SDS011;13517;59.320;18.042;2023-03-14T00:19:21;2.10;;;1.52;;
25657;SDS011;13517;59.320;18.042;2023-03-14T00:21:46;6.93;;;2.30;;
25657;SDS011;13517;59.320;18.042;2023-03-14T00:24:12;4.45;;;1.80;;
25657;SDS011;13517;59.320;18.042;2023-03-14T00:26:38;4.90;;;1.80;;
25657;SDS011;13517;59.320;18.042;2023-03-14T00:29:03;7.88;;;1.88;;
25657;SDS011;13517;59.320;18.042;2023-03-14T00:31:29;3.70;;;1.77;;
25657;SDS011;13517;59.320;18.042;2023-03-14T00:33:54;7.10;;;1.88;;
25657;SDS011;13517;59.320;18.042;2023-03-14T00:36:20;7.68;;;2.05;;
25657;SDS011;13517;59.320;18.042;2023-03-14T00:38:46;4.40;;;2.30;;
25657;SDS011;13517;59.320;18.042;2023-03-14T00:41:14;9.45;;;1.88;;
25657;SDS011;13517;59.320;18.042;2023-03-14T00:43:42;2.45;;;1.42;;
25657;SDS011;13517;59.320;18.042;2023-03-14T00:46:08;6.65;;;2.00;;
25657;SDS011;13517;59.320;18.042;2023-03-14T00:48:34;8.35;;;1.63;;
25657;SDS011;13517;59.320;18.042;2023-03-14T00:51:00;5.43;;;1.38;;
25657;SDS011;13517;59.320;18.042;2023-03-14T00:53:26;4.85;;;1.58;;
25657;SDS011;13517;59.320;18.042;2023-03-14T00:55:52;7.47;;;1.50;;
25657;SDS011;13517;59.320;18.042;2023-03-14T00:58:17;5.28;;;1.35;;
25657;SDS011;13517;59.320;18.042;2023-03-14T01:00:43;2.08;;;1.35;;
25657;SDS011;13517;59.320;18.042;2023-03-14T01:03:09;4.20;;;1.27;;
25657;SDS011;13517;59.320;18.042;2023-03-14T01:05:36;8.32;;;1.45;;
25657;SDS011;13517;59.320;18.042;2023-03-14T01:08:02;3.38;;;1.30;;
25657;SDS011;13517;59.320;18.042;2023-03-14T01:10:29;4.10;;;1.50;;
25657;SDS011;13517;59.320;18.042;2023-03-14T01:12:54;2.88;;;1.30;;
25657;SDS011;13517;59.320;18.042;2023-03-14T01:15:20;9.57;;;1.38;;
25657;SDS011;13517;59.320;18.042;2023-03-14T01:17:45;3.35;;;2.05;;
25657;SDS011;13517;59.320;18.042;2023-03-14T01:20:11;7.28;;;1.95;;
25657;SDS011;13517;59.320;18.042;2023-03-14T01:22:39;6.90;;;1.90;;
25657;SDS011;13517;59.320;18.042;2023-03-14T01:25:13;4.50;;;1.50;;
25657;SDS011;13517;59.320;18.042;2023-03-14T01:27:40;6.93;;;1.17;;
25657;SDS011;13517;59.320;18.042;2023-03-14T01:30:06;5.80;;;1.40;;
25657;SDS011;13517;59.320;18.042;2023-03-14T01:32:33;4.57;;;1.10;;
25657;SDS011;13517;59.320;18.042;2023-03-14T01:34:59;4.28;;;1.23;;
25657;SDS011;13517;59.320;18.042;2023-03-14T01:37:24;4.60;;;1.48;;
25657;SDS011;13517;59.320;18.042;2023-03-14T01:39:49;6.63;;;1.52;;
25657;SDS011;13517;59.320;18.042;2023-03-14T01:42:15;4.53;;;1.20;;
25657;SDS011;13517;59.320;18.042;2023-03-14T01:44:51;3.05;;;1.30;;
25657;SDS011;13517;59.320;18.042;2023-03-14T01:47:16;4.13;;;1.30;;
25657;SDS011;13517;59.320;18.042;2023-03-14T01:49:42;4.25;;;1.38;;
25657;SDS011;13517;59.320;18.042;2023-03-14T01:52:11;5.18;;;1.20;;
25657;SDS011;13517;59.320;18.042;2023-03-14T01:54:46;5.65;;;1.58;;
25657;SDS011;13517;59.320;18.042;2023-03-14T02:00:16;2.60;;;1.00;;
25657;SDS011;13517;59.320;18.042;2023-03-14T02:02:47;7.68;;;1.17;;
25657;SDS011;13517;59.320;18.042;2023-03-14T02:05:25;6.55;;;1.05;;
25657;SDS011;13517;59.320;18.042;2023-03-14T02:07:56;6.57;;;1.08;;
25657;SDS011;13517;59.320;18.042;2023-03-14T02:10:24;2.50;;;1.25;;
25657;SDS011;13517;59.320;18.042;2023-03-14T02:12:53;4.78;;;1.05;;
25657;SDS011;13517;59.320;18.042;2023-03-14T02:15:21;5.43;;;1.48;;
25657;SDS011;13517;59.320;18.042;2023-03-14T02:17:47;9.13;;;1.40;;
25657;SDS011;13517;59.320;18.042;2023-03-14T02:22:56;4.40;;;1.10;;
25657;SDS011;13517;59.320;18.042;2023-03-14T02:25:31;4.22;;;1.40;;
25657;SDS011;13517;59.320;18.042;2023-03-14T02:28:18;5.60;;;1.05;;
25657;SDS011;13517;59.320;18.042;2023-03-14T02:30:45;7.20;;;1.20;;
25657;SDS011;13517;59.320;18.042;2023-03-14T02:33:12;2.08;;;1.00;;
25657;SDS011;13517;59.320;18.042;2023-03-14T02:35:48;6.07;;;1.25;;
25657;SDS011;13517;59.320;18.042;2023-03-14T02:38:33;4.63;;;1.40;;
25657;SDS011;13517;59.320;18.042;2023-03-14T02:41:03;9.80;;;1.17;;
25657;SDS011;13517;59.320;18.042;2023-03-14T02:43:29;3.58;;;1.15;;
25657;SDS011;13517;59.320;18.042;2023-03-14T02:45:54;3.40;;;1.25;;
25657;SDS011;13517;59.320;18.042;2023-03-14T02:50:46;3.80;;;1.10;;
25657;SDS011;13517;59.320;18.042;2023-03-14T02:53:15;7.35;;;1.58;;
25657;SDS011;13517;59.320;18.042;2023-03-14T02:55:44;4.88;;;1.38;;
25657;SDS011;13517;59.320;18.042;2023-03-14T02:58:11;6.65;;;1.23;;
25657;SDS011;13517;59.320;18.042;2023-03-14T03:00:36;4.65;;;1.50;;
25657;SDS011;13517;59.320;18.042;2023-03-14T03:03:02;2.50;;;1.10;;
25657;SDS011;13517;59.320;18.042;2023-03-14T03:05:27;6.70;;;1.50;;
25657;SDS011;13517;59.320;18.042;2023-03-14T03:07:53;9.45;;;1.50;;
25657;SDS011;13517;59.320;18.042;2023-03-14T03:10:18;7.90;;;1.75;;
25657;SDS011;13517;59.320;18.042;2023-03-14T03:12:44;7.88;;;1.27;;
25657;SDS011;13517;59.320;18.042;2023-03-14T03:15:09;6.13;;;1.40;;
25657;SDS011;13517;59.320;18.042;2023-03-14T03:17:35;5.40;;;1.63;;
25657;SDS011;13517;59.320;18.042;2023-03-14T03:20:00;7.35;;;1.70;;
25657;SDS011;13517;59.320;18.042;2023-03-14T03:22:26;7.47;;;1.38;;
25657;SDS011;13517;59.320;18.042;2023-03-14T03:24:51;9.82;;;1.88;;
25657;SDS011;13517;59.320;18.042;2023-03-14T03:27:16;6.38;;;1.10;;
25657;SDS011;13517;59.320;18.042;2023-03-14T03:29:42;6.43;;;1.42;;
25657;SDS011;13517;59.320;18.042;2023-03-14T03:32:07;7.30;;;1.05;;
25657;SDS011;13517;59.320;18.042;2023-03-14T03:34:33;4.50;;;1.00;;
25657;SDS011;13517;59.320;18.042;2023-03-14T03:36:58;4.72;;;1.00;;
25657;SDS011;13517;59.320;18.042;2023-03-14T03:39:23;3.10;;;1.08;;
25657;SDS011;13517;59.320;18.042;2023-03-14T03:41:49;5.13;;;1.10;;
25657;SDS011;13517;59.320;18.042;2023-03-14T03:44:14;7.53;;;1.25;;
25657;SDS011;13517;59.320;18.042;2023-03-14T03:46:40;2.65;;;1.10;;
25657;SDS011;13517;59.320;18.042;2023-03-14T03:49:05;4.43;;;1.00;;
25657;SDS011;13517;59.320;18.042;2023-03-14T03:51:30;2.45;;;1.05;;
25657;SDS011;13517;59.320;18.042;2023-03-14T03:53:56;7.75;;;1.20;;
25657;SDS011;13517;59.320;18.042;2023-03-14T03:56:22;2.92;;;0.90;;
25657;SDS011;13517;59.320;18.042;2023-03-14T03:58:47;3.75;;;1.00;;
25657;SDS011;13517;59.320;18.042;2023-03-14T04:01:13;2.75;;;1.02;;
25657;SDS011;13517;59.320;18.042;2023-03-14T04:03:38;5.68;;;1.08;;
25657;SDS011;13517;59.320;18.042;2023-03-14T04:06:05;6.78;;;1.08;;
25657;SDS011;13517;59.320;18.042;2023-03-14T04:08:35;1.30;;;0.93;;
25657;SDS011;13517;59.320;18.042;2023-03-14T04:11:00;4.07;;;0.90;;
25657;SDS011;13517;59.320;18.042;2023-03-14T04:13:28;3.58;;;1.00;;
25657;SDS011;13517;59.320;18.042;2023-03-14T04:15:53;5.97;;;1.13;;
25657;SDS011;13517;59.320;18.042;2023-03-14T04:18:20;2.78;;;1.00;;
25657;SDS011;13517;59.320;18.042;2023-03-14T04:20:50;1.90;;;1.00;;
25657;SDS011;13517;59.320;18.042;2023-03-14T04:23:17;2.00;;;1.02;;
25657;SDS011;13517;59.320;18.042;2023-03-14T04:25:42;1.60;;;1.00;;
25657;SDS011;13517;59.320;18.042;2023-03-14T04:28:07;2.05;;;1.13;;
25657;SDS011;13517;59.320;18.042;2023-03-14T04:30:33;0.80;;;0.70;;
25657;SDS011;13517;59.320;18.042;2023-03-14T04:32:58;2.38;;;1.05;;
25657;SDS011;13517;59.320;18.042;2023-03-14T04:35:24;2.20;;;1.20;;
25657;SDS011;13517;59.320;18.042;2023-03-14T04:37:49;2.53;;;0.90;;
25657;SDS011;13517;59.320;18.042;2023-03-14T04:40:16;4.18;;;1.10;;
25657;SDS011;13517;59.320;18.042;2023-03-14T04:42:42;3.20;;;1.10;;
25657;SDS011;13517;59.320;18.042;2023-03-14T04:45:08;3.03;;;1.00;;
25657;SDS011;13517;59.320;18.042;2023-03-14T04:47:34;2.35;;;1.00;;
25657;SDS011;13517;59.320;18.042;2023-03-14T04:49:59;2.40;;;1.20;;
25657;SDS011;13517;59.320;18.042;2023-03-14T04:52:25;1.90;;;1.05;;
25657;SDS011;13517;59.320;18.042;2023-03-14T04:54:51;3.25;;;1.40;;
25657;SDS011;13517;59.320;18.042;2023-03-14T04:57:16;4.55;;;1.38;;
25657;SDS011;13517;59.320;18.042;2023-03-14T04:59:42;2.97;;;1.20;;
25657;SDS011;13517;59.320;18.042;2023-03-14T05:02:07;3.17;;;1.33;;
25657;SDS011;13517;59.320;18.042;2023-03-14T05:04:32;4.85;;;1.33;;
25657;SDS011;13517;59.320;18.042;2023-03-14T05:06:59;4.95;;;1.52;;
25657;SDS011;13517;59.320;18.042;2023-03-14T05:09:24;7.82;;;1.58;;
25657;SDS011;13517;59.320;18.042;2023-03-14T05:11:50;3.83;;;1.27;;
25657;SDS011;13517;59.320;18.042;2023-03-14T05:14:15;5.53;;;1.10;;
25657;SDS011;13517;59.320;18.042;2023-03-14T05:16:41;5.63;;;1.55;;
25657;SDS011;13517;59.320;18.042;2023-03-14T05:19:06;8.60;;;1.40;;
25657;SDS011;13517;59.320;18.042;2023-03-14T05:21:32;9.90;;;1.50;;
25657;SDS011;13517;59.320;18.042;2023-03-14T05:23:57;6.88;;;1.20;;
25657;SDS011;13517;59.320;18.042;2023-03-14T05:26:23;6.55;;;1.20;;
25657;SDS011;13517;59.320;18.042;2023-03-14T05:28:48;6.82;;;1.90;;
25657;SDS011;13517;59.320;18.042;2023-03-14T05:31:14;6.60;;;1.73;;
25657;SDS011;13517;59.320;18.042;2023-03-14T05:33:39;6.72;;;1.65;;
25657;SDS011;13517;59.320;18.042;2023-03-14T05:36:05;4.18;;;1.48;;
25657;SDS011;13517;59.320;18.042;2023-03-14T05:38:31;5.97;;;1.55;;
25657;SDS011;13517;59.320;18.042;2023-03-14T05:40:57;8.30;;;1.52;;
25657;SDS011;13517;59.320;18.042;2023-03-14T05:43:22;5.97;;;1.40;;
25657;SDS011;13517;59.320;18.042;2023-03-14T05:45:48;12.23;;;2.30;;
25657;SDS011;13517;59.320;18.042;2023-03-14T05:48:13;13.02;;;1.42;;
25657;SDS011;13517;59.320;18.042;2023-03-14T05:50:38;7.63;;;1.23;;
25657;SDS011;13517;59.320;18.042;2023-03-14T05:53:04;4.53;;;1.70;;
25657;SDS011;13517;59.320;18.042;2023-03-14T05:55:29;4.93;;;1.30;;
25657;SDS011;13517;59.320;18.042;2023-03-14T05:57:55;6.82;;;1.67;;
25657;SDS011;13517;59.320;18.042;2023-03-14T06:00:20;7.75;;;1.67;;
25657;SDS011;13517;59.320;18.042;2023-03-14T06:02:46;6.15;;;1.25;;
25657;SDS011;13517;59.320;18.042;2023-03-14T06:05:12;5.55;;;1.92;;
25657;SDS011;13517;59.320;18.042;2023-03-14T06:07:37;4.75;;;1.55;;
25657;SDS011;13517;59.320;18.042;2023-03-14T06:10:03;6.85;;;1.85;;
25657;SDS011;13517;59.320;18.042;2023-03-14T06:12:29;4.45;;;1.23;;
25657;SDS011;13517;59.320;18.042;2023-03-14T06:14:54;8.13;;;1.60;;
25657;SDS011;13517;59.320;18.042;2023-03-14T06:17:19;9.93;;;1.92;;
25657;SDS011;13517;59.320;18.042;2023-03-14T06:19:45;6.78;;;1.30;;
25657;SDS011;13517;59.320;18.042;2023-03-14T06:22:10;4.93;;;1.95;;
25657;SDS011;13517;59.320;18.042;2023-03-14T06:24:36;5.57;;;1.40;;
25657;SDS011;13517;59.320;18.042;2023-03-14T06:27:01;11.82;;;1.50;;
25657;SDS011;13517;59.320;18.042;2023-03-14T06:29:28;13.00;;;1.98;;
25657;SDS011;13517;59.320;18.042;2023-03-14T06:31:57;3.65;;;1.10;;
25657;SDS011;13517;59.320;18.042;2023-03-14T06:34:22;9.10;;;1.77;;
25657;SDS011;13517;59.320;18.042;2023-03-14T06:36:47;7.85;;;1.60;;
25657;SDS011;13517;59.320;18.042;2023-03-14T06:39:13;9.10;;;1.73;;
25657;SDS011;13517;59.320;18.042;2023-03-14T06:41:38;5.88;;;1.23;;
25657;SDS011;13517;59.320;18.042;2023-03-14T06:44:04;9.05;;;1.52;;
25657;SDS011;13517;59.320;18.042;2023-03-14T06:46:30;7.00;;;1.30;;
25657;SDS011;13517;59.320;18.042;2023-03-14T06:48:56;4.20;;;1.75;;
25657;SDS011;13517;59.320;18.042;2023-03-14T06:51:22;10.25;;;2.08;;
25657;SDS011;13517;59.320;18.042;2023-03-14T06:53:47;9.52;;;1.50;;
25657;SDS011;13517;59.320;18.042;2023-03-14T06:56:12;4.63;;;1.52;;
25657;SDS011;13517;59.320;18.042;2023-03-14T06:58:38;6.57;;;1.50;;
25657;SDS011;13517;59.320;18.042;2023-03-14T07:01:03;3.78;;;0.75;;
25657;SDS011;13517;59.320;18.042;2023-03-14T07:03:29;4.97;;;0.98;;
25657;SDS011;13517;59.320;18.042;2023-03-14T07:05:54;5.93;;;1.48;;
25657;SDS011;13517;59.320;18.042;2023-03-14T07:08:20;4.38;;;1.20;;
25657;SDS011;13517;59.320;18.042;2023-03-14T07:10:46;3.53;;;1.30;;
25657;SDS011;13517;59.320;18.042;2023-03-14T07:13:11;7.18;;;1.67;;
25657;SDS011;13517;59.320;18.042;2023-03-14T07:15:37;6.28;;;1.67;;
25657;SDS011;13517;59.320;18.042;2023-03-14T07:18:02;5.03;;;1.10;;
25657;SDS011;13517;59.320;18.042;2023-03-14T07:20:28;4.00;;;1.13;;
25657;SDS011;13517;59.320;18.042;2023-03-14T07:22:54;7.72;;;1.38;;
25657;SDS011;13517;59.320;18.042;2023-03-14T07:25:20;6.70;;;1.45;;
25657;SDS011;13517;59.320;18.042;2023-03-14T07:27:45;4.80;;;1.17;;
25657;SDS011;13517;59.320;18.042;2023-03-14T07:30:12;5.60;;;1.08;;
25657;SDS011;13517;59.320;18.042;2023-03-14T07:32:38;3.15;;;0.75;;
25657;SDS011;13517;59.320;18.042;2023-03-14T07:35:03;6.72;;;1.20;;
25657;SDS011;13517;59.320;18.042;2023-03-14T07:37:29;9.00;;;1.25;;
25657;SDS011;13517;59.320;18.042;2023-03-14T07:39:55;3.90;;;0.90;;
25657;SDS011;13517;59.320;18.042;2023-03-14T07:42:20;1.60;;;0.90;;
25657;SDS011;13517;59.320;18.042;2023-03-14T07:44:45;1.95;;;0.95;;
25657;SDS011;13517;59.320;18.042;2023-03-14T07:47:11;4.32;;;0.77;;
25657;SDS011;13517;59.320;18.042;2023-03-14T07:49:36;3.22;;;1.02;;
25657;SDS011;13517;59.320;18.042;2023-03-14T07:52:02;2.55;;;0.90;;
25657;SDS011;13517;59.320;18.042;2023-03-14T07:54:27;4.03;;;1.02;;
25657;SDS011;13517;59.320;18.042;2023-03-14T07:56:53;4.18;;;0.93;;
25657;SDS011;13517;59.320;18.042;2023-03-14T07:59:18;5.97;;;2.22;;
25657;SDS011;13517;59.320;18.042;2023-03-14T08:01:45;4.80;;;1.08;;
25657;SDS011;13517;59.320;18.042;2023-03-14T08:04:10;2.58;;;0.98;;
25657;SDS011;13517;59.320;18.042;2023-03-14T08:06:36;3.40;;;1.00;;
25657;SDS011;13517;59.320;18.042;2023-03-14T08:09:02;5.25;;;1.00;;
25657;SDS011;13517;59.320;18.042;2023-03-14T08:11:28;2.78;;;0.73;;
25657;SDS011;13517;59.320;18.042;2023-03-14T08:13:53;2.83;;;0.90;;
25657;SDS011;13517;59.320;18.042;2023-03-14T08:16:19;1.52;;;0.93;;
25657;SDS011;13517;59.320;18.042;2023-03-14T08:18:45;1.40;;;0.98;;
25657;SDS011;13517;59.320;18.042;2023-03-14T08:21:11;2.65;;;0.80;;
25657;SDS011;13517;59.320;18.042;2023-03-14T08:23:37;3.25;;;0.60;;
25657;SDS011;13517;59.320;18.042;2023-03-14T08:26:02;2.78;;;0.90;;
25657;SDS011;13517;59.320;18.042;2023-03-14T08:28:28;2.38;;;0.70;;
25657;SDS011;13517;59.320;18.042;2023-03-14T08:30:57;1.77;;;0.70;;
25657;SDS011;13517;59.320;18.042;2023-03-14T08:33:23;4.90;;;0.88;;
25657;SDS011;13517;59.320;18.042;2023-03-14T08:35:51;1.45;;;0.65;;
25657;SDS011;13517;59.320;18.042;2023-03-14T08:38:17;3.55;;;0.75;;
25657;SDS011;13517;59.320;18.042;2023-03-14T08:40:43;1.75;;;1.05;;
25657;SDS011;13517;59.320;18.042;2023-03-14T08:43:08;1.52;;;0.80;;
25657;SDS011;13517;59.320;18.042;2023-03-14T08:45:33;3.55;;;0.80;;
25657;SDS011;13517;59.320;18.042;2023-03-14T08:47:59;0.75;;;0.55;;
25657;SDS011;13517;59.320;18.042;2023-03-14T08:50:25;2.10;;;0.52;;
25657;SDS011;13517;59.320;18.042;2023-03-14T08:52:50;1.55;;;0.63;;
25657;SDS011;13517;59.320;18.042;2023-03-14T08:55:16;4.20;;;0.70;;
25657;SDS011;13517;59.320;18.042;2023-03-14T08:57:41;2.40;;;0.68;;
25657;SDS011;13517;59.320;18.042;2023-03-14T09:00:07;2.13;;;0.70;;
25657;SDS011;13517;59.320;18.042;2023-03-14T09:02:35;3.47;;;0.70;;
25657;SDS011;13517;59.320;18.042;2023-03-14T09:05:01;1.88;;;0.60;;
25657;SDS011;13517;59.320;18.042;2023-03-14T09:07:27;1.85;;;0.40;;
25657;SDS011;13517;59.320;18.042;2023-03-14T09:09:52;3.05;;;0.60;;
25657;SDS011;13517;59.320;18.042;2023-03-14T09:12:17;0.77;;;0.50;;
25657;SDS011;13517;59.320;18.042;2023-03-14T09:14:43;0.60;;;0.60;;
25657;SDS011;13517;59.320;18.042;2023-03-14T09:17:08;0.95;;;0.50;;
25657;SDS011;13517;59.320;18.042;2023-03-14T09:19:34;2.80;;;0.50;;
25657;SDS011;13517;59.320;18.042;2023-03-14T09:21:59;2.65;;;0.50;;
25657;SDS011;13517;59.320;18.042;2023-03-14T09:24:25;1.08;;;0.50;;
25657;SDS011;13517;59.320;18.042;2023-03-14T09:26:50;0.55;;;0.55;;
25657;SDS011;13517;59.320;18.042;2023-03-14T09:29:16;0.40;;;0.40;;
25657;SDS011;13517;59.320;18.042;2023-03-14T09:31:41;0.50;;;0.50;;
25657;SDS011;13517;59.320;18.042;2023-03-14T09:34:07;1.85;;;0.50;;
25657;SDS011;13517;59.320;18.042;2023-03-14T09:36:32;0.45;;;0.40;;
25657;SDS011;13517;59.320;18.042;2023-03-14T09:38:57;0.57;;;0.40;;
25657;SDS011;13517;59.320;18.042;2023-03-14T09:41:24;0.45;;;0.38;;
25657;SDS011;13517;59.320;18.042;2023-03-14T09:44:04;1.00;;;0.50;;
25657;SDS011;13517;59.320;18.042;2023-03-14T09:46:42;0.40;;;0.40;;
25657;SDS011;13517;59.320;18.042;2023-03-14T09:49:16;0.30;;;0.30;;
25657;SDS011;13517;59.320;18.042;2023-03-14T09:51:46;2.40;;;0.50;;
25657;SDS011;13517;59.320;18.042;2023-03-14T09:54:22;0.40;;;0.40;;
25657;SDS011;13517;59.320;18.042;2023-03-14T09:57:25;0.88;;;0.43;;
25657;SDS011;13517;59.320;18.042;2023-03-14T09:59:54;0.70;;;0.50;;
25657;SDS011;13517;59.320;18.042;2023-03-14T10:02:26;0.98;;;0.50;;
25657;SDS011;13517;59.320;18.042;2023-03-14T10:04:58;2.83;;;0.57;;
25657;SDS011;13517;59.320;18.042;2023-03-14T10:07:27;0.70;;;0.40;;
25657;SDS011;13517;59.320;18.042;2023-03-14T10:09:54;0.50;;;0.50;;
25657;SDS011;13517;59.320;18.042;2023-03-14T10:12:20;2.58;;;0.50;;
25657;SDS011;13517;59.320;18.042;2023-03-14T10:15:02;1.40;;;0.60;;
25657;SDS011;13517;59.320;18.042;2023-03-14T10:17:48;0.93;;;0.55;;
25657;SDS011;13517;59.320;18.042;2023-03-14T10:25:38;0.90;;;0.50;;
25657;SDS011;13517;59.320;18.042;2023-03-14T10:28:11;0.77;;;0.57;;
25657;SDS011;13517;59.320;18.042;2023-03-14T10:30:49;0.63;;;0.50;;
25657;SDS011;13517;59.320;18.042;2023-03-14T10:35:43;0.80;;;0.60;;
25657;SDS011;13517;59.320;18.042;2023-03-14T10:38:13;0.40;;;0.40;;
25657;SDS011;13517;59.320;18.042;2023-03-14T10:40:46;1.58;;;0.80;;
25657;SDS011;13517;59.320;18.042;2023-03-14T10:43:18;0.60;;;0.60;;
25657;SDS011;13517;59.320;18.042;2023-03-14T10:45:56;1.52;;;0.50;;
25657;SDS011;13517;59.320;18.042;2023-03-14T10:51:02;1.67;;;0.63;;
25657;SDS011;13517;59.320;18.042;2023-03-14T10:56:11;0.47;;;0.47;;
25657;SDS011;13517;59.320;18.042;2023-03-14T10:58:43;0.47;;;0.40;;
25657;SDS011;13517;59.320;18.042;2023-03-14T11:07:20;4.80;;;0.57;;
25657;SDS011;13517;59.320;18.042;2023-03-14T11:15:42;1.27;;;0.65;;
25657;SDS011;13517;59.320;18.042;2023-03-14T11:23:32;0.77;;;0.60;;
25657;SDS011;13517;59.320;18.042;2023-03-14T11:28:58;5.07;;;0.60;;
25657;SDS011;13517;59.320;18.042;2023-03-14T11:31:37;0.82;;;0.60;;
25657;SDS011;13517;59.320;18.042;2023-03-14T11:36:51;0.65;;;0.50;;
25657;SDS011;13517;59.320;18.042;2023-03-14T11:39:38;2.25;;;0.65;;
25657;SDS011;13517;59.320;18.042;2023-03-14T11:42:07;0.95;;;0.63;;
25657;SDS011;13517;59.320;18.042;2023-03-14T11:44:39;1.10;;;0.70;;
25657;SDS011;13517;59.320;18.042;2023-03-14T11:47:19;3.00;;;0.50;;
25657;SDS011;13517;59.320;18.042;2023-03-14T11:58:19;0.98;;;0.75;;
25657;SDS011;13517;59.320;18.042;2023-03-14T12:00:50;0.90;;;0.80;;
25657;SDS011;13517;59.320;18.042;2023-03-14T12:08:39;2.22;;;0.90;;
25657;SDS011;13517;59.320;18.042;2023-03-14T12:13:36;2.10;;;0.90;;
25657;SDS011;13517;59.320;18.042;2023-03-14T12:16:24;2.42;;;0.80;;
25657;SDS011;13517;59.320;18.042;2023-03-14T12:18:51;0.93;;;0.70;;
25657;SDS011;13517;59.320;18.042;2023-03-14T12:21:17;1.00;;;0.75;;
25657;SDS011;13517;59.320;18.042;2023-03-14T12:23:53;0.75;;;0.60;;
25657;SDS011;13517;59.320;18.042;2023-03-14T12:28:50;1.67;;;0.80;;
25657;SDS011;13517;59.320;18.042;2023-03-14T12:42:03;0.75;;;0.55;;
25657;SDS011;13517;59.320;18.042;2023-03-14T12:49:47;2.40;;;0.80;;
25657;SDS011;13517;59.320;18.042;2023-03-14T12:52:22;1.33;;;0.70;;
25657;SDS011;13517;59.320;18.042;2023-03-14T12:54:57;1.10;;;0.70;;
25657;SDS011;13517;59.320;18.042;2023-03-14T12:57:28;1.35;;;1.10;;
25657;SDS011;13517;59.320;18.042;2023-03-14T13:00:17;1.08;;;0.90;;
25657;SDS011;13517;59.320;18.042;2023-03-14T13:02:45;2.08;;;0.80;;
25657;SDS011;13517;59.320;18.042;2023-03-14T13:05:17;1.38;;;0.80;;
25657;SDS011;13517;59.320;18.042;2023-03-14T13:13:24;2.63;;;1.00;;
25657;SDS011;13517;59.320;18.042;2023-03-14T13:15:58;5.00;;;1.13;;
25657;SDS011;13517;59.320;18.042;2023-03-14T13:23:53;4.18;;;1.30;;
25657;SDS011;13517;59.320;18.042;2023-03-14T13:26:22;4.82;;;1.00;;
25657;SDS011;13517;59.320;18.042;2023-03-14T13:28:49;1.10;;;0.90;;
25657;SDS011;13517;59.320;18.042;2023-03-14T13:31:21;2.78;;;0.90;;
25657;SDS011;13517;59.320;18.042;2023-03-14T13:34:04;2.60;;;1.25;;
25657;SDS011;13517;59.320;18.042;2023-03-14T13:36:33;4.32;;;1.33;;
25657;SDS011;13517;59.320;18.042;2023-03-14T13:39:01;2.17;;;1.30;;
25657;SDS011;13517;59.320;18.042;2023-03-14T13:41:29;3.05;;;2.30;;
25657;SDS011;13517;59.320;18.042;2023-03-14T13:44:00;3.72;;;1.45;;
25657;SDS011;13517;59.320;18.042;2023-03-14T13:46:30;1.90;;;1.35;;
25657;SDS011;13517;59.320;18.042;2023-03-14T13:49:00;4.28;;;1.17;;
25657;SDS011;13517;59.320;18.042;2023-03-14T13:51:29;4.35;;;1.33;;
25657;SDS011;13517;59.320;18.042;2023-03-14T13:53:58;5.05;;;1.40;;
25657;SDS011;13517;59.320;18.042;2023-03-14T13:56:28;8.07;;;2.10;;
25657;SDS011;13517;59.320;18.042;2023-03-14T13:58:55;7.13;;;1.80;;
25657;SDS011;13517;59.320;18.042;2023-03-14T14:04:08;2.65;;;1.50;;
25657;SDS011;13517;59.320;18.042;2023-03-14T14:06:44;2.17;;;1.60;;
25657;SDS011;13517;59.320;18.042;2023-03-14T14:09:14;4.03;;;1.55;;
25657;SDS011;13517;59.320;18.042;2023-03-14T14:14:27;2.40;;;1.90;;
25657;SDS011;13517;59.320;18.042;2023-03-14T14:16:54;4.18;;;1.80;;
25657;SDS011;13517;59.320;18.042;2023-03-14T14:19:20;1.75;;;1.40;;
25657;SDS011;13517;59.320;18.042;2023-03-14T14:21:49;1.95;;;1.55;;
25657;SDS011;13517;59.320;18.042;2023-03-14T14:24:15;1.98;;;1.48;;
25657;SDS011;13517;59.320;18.042;2023-03-14T14:26:46;5.63;;;1.85;;
25657;SDS011;13517;59.320;18.042;2023-03-14T14:34:42;2.45;;;1.40;;
25657;SDS011;13517;59.320;18.042;2023-03-14T14:37:18;7.45;;;1.42;;
25657;SDS011;13517;59.320;18.042;2023-03-14T14:39:45;2.17;;;1.40;;
25657;SDS011;13517;59.320;18.042;2023-03-14T14:42:15;6.40;;;1.90;;
25657;SDS011;13517;59.320;18.042;2023-03-14T14:44:42;3.53;;;2.38;;
25657;SDS011;13517;59.320;18.042;2023-03-14T14:47:12;6.40;;;1.70;;
25657;SDS011;13517;59.320;18.042;2023-03-14T14:49:40;4.15;;;1.83;;
25657;SDS011;13517;59.320;18.042;2023-03-14T14:55:17;4.63;;;2.63;;
25657;SDS011;13517;59.320;18.042;2023-03-14T14:57:52;4.47;;;1.30;;
25657;SDS011;13517;59.320;18.042;2023-03-14T15:05:25;4.35;;;1.80;;
25657;SDS011;13517;59.320;18.042;2023-03-14T15:07:54;2.85;;;1.77;;
25657;SDS011;13517;59.320;18.042;2023-03-14T15:10:21;1.92;;;1.40;;
25657;SDS011;13517;59.320;18.042;2023-03-14T15:12:49;4.03;;;2.17;;
25657;SDS011;13517;59.320;18.042;2023-03-14T15:15:14;2.08;;;1.30;;
25657;SDS011;13517;59.320;18.042;2023-03-14T15:17:40;4.18;;;1.60;;
25657;SDS011;13517;59.320;18.042;2023-03-14T15:20:09;3.17;;;2.10;;
25657;SDS011;13517;59.320;18.042;2023-03-14T15:22:38;1.48;;;1.25;;
25657;SDS011;13517;59.320;18.042;2023-03-14T15:25:04;3.95;;;2.13;;
25657;SDS011;13517;59.320;18.042;2023-03-14T15:27:31;4.25;;;1.60;;
25657;SDS011;13517;59.320;18.042;2023-03-14T15:29:57;3.00;;;2.20;;
25657;SDS011;13517;59.320;18.042;2023-03-14T15:32:23;4.75;;;1.88;;
25657;SDS011;13517;59.320;18.042;2023-03-14T15:34:49;4.45;;;1.80;;
25657;SDS011;13517;59.320;18.042;2023-03-14T15:37:15;5.70;;;1.90;;
25657;SDS011;13517;59.320;18.042;2023-03-14T15:39:45;4.30;;;2.60;;
25657;SDS011;13517;59.320;18.042;2023-03-14T15:42:10;5.15;;;2.20;;
25657;SDS011;13517;59.320;18.042;2023-03-14T15:44:36;5.00;;;2.65;;
25657;SDS011;13517;59.320;18.042;2023-03-14T15:47:03;3.47;;;2.03;;
25657;SDS011;13517;59.320;18.042;2023-03-14T15:49:29;5.97;;;2.55;;
25657;SDS011;13517;59.320;18.042;2023-03-14T15:51:55;3.17;;;2.13;;
25657;SDS011;13517;59.320;18.042;2023-03-14T15:54:20;8.05;;;2.35;;
25657;SDS011;13517;59.320;18.042;2023-03-14T15:56:46;4.50;;;2.55;;
25657;SDS011;13517;59.320;18.042;2023-03-14T15:59:11;2.60;;;2.00;;
25657;SDS011;13517;59.320;18.042;2023-03-14T16:01:37;6.40;;;2.47;;
25657;SDS011;13517;59.320;18.042;2023-03-14T16:04:02;3.70;;;2.20;;
25657;SDS011;13517;59.320;18.042;2023-03-14T16:06:28;3.10;;;2.20;;
25657;SDS011;13517;59.320;18.042;2023-03-14T16:08:55;3.38;;;2.10;;
25657;SDS011;13517;59.320;18.042;2023-03-14T16:11:21;3.50;;;2.20;;
25657;SDS011;13517;59.320;18.042;2023-03-14T16:13:47;3.00;;;1.95;;
25657;SDS011;13517;59.320;18.042;2023-03-14T16:16:12;2.45;;;2.00;;
25657;SDS011;13517;59.320;18.042;2023-03-14T16:18:38;2.63;;;2.20;;
25657;SDS011;13517;59.320;18.042;2023-03-14T16:21:05;3.08;;;2.30;;
25657;SDS011;13517;59.320;18.042;2023-03-14T16:23:39;2.83;;;2.05;;
25657;SDS011;13517;59.320;18.042;2023-03-14T16:26:05;2.95;;;1.90;;